createdAt,value
2019-05-11T00:00:36.133Z,83.20
2019-05-11T00:03:05.362Z,82.70
2019-05-11T00:05:34.529Z,89.13
2019-05-11T00:08:03.789Z,89.22
2019-05-11T00:10:33.006Z,89.13
2019-05-11T00:13:02.244Z,90.25
2019-05-11T00:15:31.557Z,84.42
2019-05-11T00:18:00.810Z,90.87
2019-05-11T00:20:30.046Z,88.12
2019-05-11T00:22:59.227Z,87.17
2019-05-11T00:25:28.591Z,81.82
2019-05-11T00:27:57.765Z,85.12
2019-05-11T00:30:26.952Z,95.47
2019-05-11T00:32:56.198Z,96.70
2019-05-11T00:35:25.483Z,95.57
2019-05-11T00:37:54.752Z,91.75
2019-05-11T00:40:24.038Z,85.97
2019-05-11T00:42:53.265Z,85.35
2019-05-11T00:45:22.434Z,88.07
2019-05-11T00:47:51.623Z,97.05
2019-05-11T00:50:20.903Z,96.32
2019-05-11T00:52:50.154Z,90.50
2019-05-11T00:55:19.390Z,87.78
2019-05-11T00:57:48.637Z,97.12
2019-05-11T01:00:17.826Z,78.75
2019-05-11T01:02:47.049Z,80.50
2019-05-11T01:05:16.316Z,73.07
2019-05-11T01:07:45.559Z,80.75
2019-05-11T01:10:23.669Z,72.05
2019-05-11T01:12:45.960Z,73.45
2019-05-11T01:15:15.166Z,68.55
2019-05-11T01:17:44.529Z,62.33
2019-05-11T01:20:14.145Z,65.80
2019-05-11T01:22:43.404Z,63.75
2019-05-11T01:25:12.700Z,61.77
2019-05-11T01:27:41.969Z,50.12
2019-05-11T01:30:11.215Z,53.90
2019-05-11T01:32:40.589Z,56.92
2019-05-11T01:35:10.061Z,56.92
2019-05-11T01:37:39.241Z,47.35
2019-05-11T01:40:08.480Z,48.85
2019-05-11T01:42:37.721Z,45.50
2019-05-11T01:45:06.942Z,44.27
2019-05-11T01:47:36.162Z,43.08
2019-05-11T01:50:05.419Z,41.73
2019-05-11T01:52:34.594Z,42.75
2019-05-11T01:55:03.821Z,45.03
2019-05-11T01:57:33.066Z,46.70
2019-05-11T02:00:02.304Z,45.90
2019-05-11T02:02:31.598Z,45.65
2019-05-11T02:05:18.811Z,43.58
2019-05-11T02:07:48.038Z,47.23
2019-05-11T02:10:23.845Z,49.38
2019-05-11T02:12:53.517Z,48.13
2019-05-11T02:15:22.697Z,44.83
2019-05-11T02:17:51.867Z,45.50
2019-05-11T02:20:21.159Z,44.25
2019-05-11T02:22:50.450Z,44.58
2019-05-11T02:25:19.711Z,48.28
2019-05-11T02:27:48.875Z,43.33
2019-05-11T02:30:18.276Z,45.08
2019-05-11T02:32:47.436Z,45.00
2019-05-11T02:35:16.617Z,50.60
2019-05-11T02:37:46.285Z,43.25
2019-05-11T02:40:15.533Z,44.55
2019-05-11T02:42:44.777Z,47.20
2019-05-11T02:45:14.015Z,44.98
2019-05-11T02:47:43.805Z,49.42
2019-05-11T02:50:12.983Z,48.15
2019-05-11T02:52:42.380Z,51.73
2019-05-11T02:55:11.638Z,45.08
2019-05-11T02:57:40.876Z,44.45
2019-05-11T03:00:10.142Z,45.83
2019-05-11T03:02:39.323Z,43.48
2019-05-11T03:05:08.631Z,39.85
2019-05-11T03:07:37.878Z,47.35
2019-05-11T03:10:07.124Z,44.48
2019-05-11T03:12:36.354Z,47.17
2019-05-11T03:15:07.231Z,46.25
2019-05-11T03:17:36.474Z,45.38
2019-05-11T03:20:06.979Z,49.13
2019-05-11T03:22:36.230Z,46.53
2019-05-11T03:25:06.400Z,46.48
2019-05-11T03:27:35.585Z,46.88
2019-05-11T03:30:06.908Z,45.17
2019-05-11T03:32:36.118Z,43.70
2019-05-11T03:35:06.097Z,45.73
2019-05-11T03:37:35.409Z,43.80
2019-05-11T03:40:06.629Z,44.40
2019-05-11T03:42:36.128Z,47.78
2019-05-11T03:45:06.546Z,47.10
2019-05-11T03:47:35.770Z,45.00
2019-05-11T03:50:06.812Z,44.20
2019-05-11T03:52:36.006Z,42.98
2019-05-11T03:55:06.162Z,45.12
2019-05-11T03:57:35.434Z,42.45
2019-05-11T04:00:07.190Z,44.27
2019-05-11T04:02:36.423Z,44.50
2019-05-11T04:05:06.128Z,50.12
2019-05-11T04:07:35.407Z,50.03
2019-05-11T04:10:06.587Z,45.73
2019-05-11T04:12:36.042Z,46.00
2019-05-11T04:15:08.951Z,42.98
2019-05-11T04:17:38.421Z,42.30
2019-05-11T04:20:07.743Z,49.93
2019-05-11T04:22:36.927Z,51.05
2019-05-11T04:25:06.416Z,45.12
2019-05-11T04:27:35.793Z,48.20
2019-05-11T04:30:07.923Z,43.25
2019-05-11T04:32:37.152Z,43.45
2019-05-11T04:35:06.567Z,43.73
2019-05-11T04:37:35.744Z,43.20
2019-05-11T04:40:05.504Z,40.10
2019-05-11T04:42:51.811Z,41.28
2019-05-11T04:45:07.355Z,42.40
2019-05-11T04:47:36.748Z,41.37
2019-05-11T04:50:09.025Z,40.05
2019-05-11T04:52:38.194Z,41.53
2019-05-11T04:55:07.407Z,42.88
2019-05-11T04:57:36.704Z,41.23
2019-05-11T05:00:06.540Z,35.43
2019-05-11T05:02:35.747Z,37.70
2019-05-11T05:05:05.754Z,38.35
2019-05-11T05:07:34.938Z,39.83
2019-05-11T05:10:05.115Z,39.48
2019-05-11T05:12:34.298Z,37.85
2019-05-11T05:15:04.176Z,37.75
2019-05-11T05:17:33.403Z,35.13
2019-05-11T05:20:02.582Z,38.95
2019-05-11T05:22:31.880Z,38.92
2019-05-11T05:25:01.053Z,34.95
2019-05-11T05:27:30.298Z,36.28
2019-05-11T05:29:59.651Z,34.10
2019-05-11T05:32:28.898Z,35.30
2019-05-11T05:34:58.092Z,40.92
2019-05-11T05:37:27.288Z,33.00
2019-05-11T05:39:56.547Z,32.35
2019-05-11T05:42:26.169Z,32.85
2019-05-11T05:44:55.379Z,31.48
2019-05-11T05:47:24.634Z,33.83
2019-05-11T05:49:53.836Z,33.20
2019-05-11T05:52:23.110Z,32.17
2019-05-11T05:54:52.312Z,30.45
2019-05-11T05:57:21.501Z,31.48
2019-05-11T05:59:50.799Z,33.83
2019-05-11T06:02:19.993Z,30.72
2019-05-11T06:04:49.249Z,30.90
2019-05-11T06:07:18.497Z,30.77
2019-05-11T06:09:47.748Z,30.57
2019-05-11T06:12:16.939Z,29.60
2019-05-11T06:14:46.171Z,28.52
2019-05-11T06:17:15.426Z,31.52
2019-05-11T06:19:44.700Z,31.07
2019-05-11T06:22:14.680Z,33.28
2019-05-11T06:24:43.928Z,32.30
2019-05-11T06:27:13.167Z,33.00
2019-05-11T06:29:42.456Z,28.60
2019-05-11T06:32:11.622Z,28.47
2019-05-11T06:34:40.977Z,29.18
2019-05-11T06:37:10.608Z,29.40
2019-05-11T06:39:39.784Z,25.40
2019-05-11T06:42:09.079Z,24.98
2019-05-11T06:44:38.325Z,24.50
2019-05-11T06:47:07.510Z,24.82
2019-05-11T06:49:36.753Z,24.43
2019-05-11T06:52:06.103Z,25.72
2019-05-11T06:54:35.366Z,27.50
2019-05-11T06:57:04.562Z,23.27
2019-05-11T06:59:33.774Z,25.05
2019-05-11T07:02:03.032Z,25.20
2019-05-11T07:04:32.261Z,20.52
2019-05-11T07:07:01.456Z,23.62
2019-05-11T07:09:30.736Z,23.00
2019-05-11T07:12:00.130Z,22.82
2019-05-11T07:14:29.479Z,29.15
2019-05-11T07:16:58.903Z,24.87
2019-05-11T07:19:28.076Z,21.35
2019-05-11T07:21:57.386Z,24.92
2019-05-11T07:24:26.591Z,21.80
2019-05-11T07:26:55.836Z,22.10
2019-05-11T07:29:25.077Z,19.05
2019-05-11T07:31:54.329Z,15.83
2019-05-11T07:34:23.660Z,19.98
2019-05-11T07:36:53.287Z,16.45
2019-05-11T07:39:22.671Z,13.62
2019-05-11T07:41:51.950Z,14.18
2019-05-11T07:44:35.028Z,13.55
2019-05-11T07:46:52.642Z,13.95
2019-05-11T07:49:23.548Z,13.83
2019-05-11T07:51:53.085Z,15.00
2019-05-11T07:54:22.596Z,21.85
2019-05-11T07:56:51.889Z,19.75
2019-05-11T07:59:21.135Z,12.80
2019-05-11T08:01:50.507Z,13.72
2019-05-11T08:04:19.815Z,12.03
2019-05-11T08:06:49.143Z,14.20
2019-05-11T08:09:18.820Z,15.55
2019-05-11T08:11:48.282Z,14.15
2019-05-11T08:14:18.253Z,12.60
2019-05-11T08:16:48.209Z,12.07
2019-05-11T08:19:18.500Z,15.85
2019-05-11T08:21:48.230Z,12.00
2019-05-11T08:24:18.128Z,11.40
2019-05-11T08:26:48.128Z,12.37
2019-05-11T08:29:18.550Z,11.63
2019-05-11T08:31:48.756Z,13.50
2019-05-11T08:34:18.357Z,13.05
2019-05-11T08:36:48.113Z,11.50
2019-05-11T08:39:18.229Z,10.32
2019-05-11T08:41:48.777Z,9.50
2019-05-11T08:44:18.355Z,9.50
2019-05-11T08:46:48.048Z,9.83
2019-05-11T08:49:19.020Z,11.25
2019-05-11T08:51:48.444Z,7.60
2019-05-11T08:54:18.433Z,9.23
2019-05-11T08:56:48.678Z,8.33
2019-05-11T08:59:18.789Z,8.13
2019-05-11T09:01:48.476Z,8.03
2019-05-11T09:04:18.356Z,9.58
2019-05-11T09:06:48.069Z,5.90
2019-05-11T09:09:18.063Z,5.78
2019-05-11T09:11:48.235Z,6.25
2019-05-11T09:14:18.824Z,7.92
2019-05-11T09:16:49.058Z,9.85
2019-05-11T09:19:18.574Z,8.38
2019-05-11T09:21:48.321Z,10.90
2019-05-11T09:24:18.994Z,9.05
2019-05-11T09:26:48.407Z,13.90
2019-05-11T09:29:17.969Z,6.75
2019-05-11T09:31:48.691Z,7.53
2019-05-11T09:34:18.282Z,6.30
2019-05-11T09:36:48.027Z,8.75
2019-05-11T09:39:17.852Z,6.78
2019-05-11T09:41:48.807Z,6.83
2019-05-11T09:44:18.457Z,8.10
2019-05-11T09:46:48.006Z,8.05
2019-05-11T09:49:18.512Z,8.15
2019-05-11T09:51:48.868Z,7.67
2019-05-11T09:54:18.401Z,8.00
2019-05-11T09:56:48.623Z,6.85
2019-05-11T09:59:18.206Z,6.15
2019-05-11T10:01:48.367Z,6.35
2019-05-11T10:04:18.208Z,8.60
2019-05-11T10:06:48.211Z,8.05
2019-05-11T10:09:18.686Z,8.10
2019-05-11T10:11:48.190Z,12.03
2019-05-11T10:14:18.718Z,9.50
2019-05-11T10:16:49.116Z,6.55
2019-05-11T10:19:18.584Z,6.95
2019-05-11T10:21:48.666Z,6.28
2019-05-11T10:24:18.180Z,6.53
2019-05-11T10:26:48.704Z,8.08
2019-05-11T10:29:18.429Z,7.10
2019-05-11T10:31:48.164Z,8.88
2019-05-11T10:34:19.586Z,7.28
2019-05-11T10:36:49.091Z,7.33
2019-05-11T10:39:18.802Z,18.17
2019-05-11T10:41:48.258Z,8.48
2019-05-11T10:44:18.747Z,6.47
2019-05-11T10:46:48.499Z,6.37
2019-05-11T10:49:18.546Z,9.15
2019-05-11T10:51:48.646Z,9.35
2019-05-11T10:54:18.813Z,9.38
2019-05-11T10:56:48.345Z,10.23
2019-05-11T10:59:18.772Z,8.83
2019-05-11T11:01:48.521Z,10.28
2019-05-11T11:04:18.602Z,9.58
2019-05-11T11:06:48.528Z,11.65
2019-05-11T11:09:18.046Z,11.73
2019-05-11T11:11:48.856Z,5.87
2019-05-11T11:14:18.292Z,9.18
2019-05-11T11:16:48.057Z,7.50
2019-05-11T11:19:18.422Z,9.58
2019-05-11T11:21:48.735Z,7.03
2019-05-11T11:24:18.391Z,10.23
2019-05-11T11:26:48.596Z,7.67
2019-05-11T11:29:18.265Z,6.03
2019-05-11T11:31:48.186Z,6.33
2019-05-11T11:34:18.794Z,5.15
2019-05-11T11:36:48.594Z,6.58
2019-05-11T11:39:18.737Z,8.05
2019-05-11T11:41:48.702Z,7.35
2019-05-11T11:44:18.610Z,5.85
2019-05-11T11:46:54.634Z,5.87
2019-05-11T11:49:19.220Z,7.00
2019-05-11T11:51:48.681Z,5.97
2019-05-11T11:54:18.391Z,7.42
2019-05-11T11:56:48.543Z,9.63
2019-05-11T11:59:18.125Z,21.07
2019-05-11T12:01:48.683Z,8.73
2019-05-11T12:04:18.817Z,7.55
2019-05-11T12:06:49.021Z,8.43
2019-05-11T12:09:18.649Z,7.80
2019-05-11T12:11:48.568Z,12.13
2019-05-11T12:14:18.824Z,17.95
2019-05-11T12:17:03.672Z,12.95
2019-05-11T12:19:19.760Z,12.65
2019-05-11T12:21:49.082Z,13.32
2019-05-11T12:24:18.822Z,12.18
2019-05-11T12:26:48.295Z,13.38
2019-05-11T12:29:18.856Z,14.45
2019-05-11T12:31:48.691Z,12.98
2019-05-11T12:34:18.104Z,13.62
2019-05-11T12:36:47.978Z,13.55
2019-05-11T12:39:19.186Z,13.30
2019-05-11T12:41:48.536Z,12.82
2019-05-11T12:44:18.804Z,15.00
2019-05-11T12:46:49.000Z,13.05
2019-05-11T12:49:18.855Z,13.75
2019-05-11T12:51:48.778Z,12.47
2019-05-11T12:54:18.788Z,11.40
2019-05-11T12:56:49.013Z,10.18
2019-05-11T12:59:18.861Z,13.20
2019-05-11T13:01:48.725Z,11.73
2019-05-11T13:04:18.375Z,15.65
2019-05-11T13:06:48.616Z,14.43
2019-05-11T13:09:18.470Z,17.45
2019-05-11T13:11:48.324Z,17.48
2019-05-11T13:14:18.508Z,17.98
2019-05-11T13:16:48.813Z,18.17
2019-05-11T13:19:18.166Z,16.37
2019-05-11T13:21:48.705Z,32.55
2019-05-11T13:24:18.757Z,22.30
2019-05-11T13:26:48.645Z,18.62
2019-05-11T13:29:18.210Z,18.30
2019-05-11T13:31:48.575Z,16.30
2019-05-11T14:49:40.881Z,9.38
2019-05-11T14:52:10.293Z,9.90
2019-05-11T14:54:39.768Z,9.05
2019-05-11T14:57:08.956Z,9.40
2019-05-11T14:59:38.205Z,9.13
2019-05-11T15:02:12.057Z,10.25
2019-05-11T15:04:43.085Z,9.78
2019-05-11T15:07:12.496Z,11.48
2019-05-11T15:09:41.753Z,11.30
2019-05-11T15:12:10.930Z,10.58
2019-05-11T15:14:40.149Z,9.98
2019-05-11T15:17:09.275Z,15.25
2019-05-11T15:19:38.524Z,8.93
2019-05-11T15:22:08.665Z,9.75
2019-05-11T15:24:38.518Z,9.23
2019-05-11T15:27:08.201Z,9.10
2019-05-11T15:29:37.824Z,8.15
2019-05-11T15:32:08.489Z,7.10
2019-05-11T15:34:38.282Z,7.78
2019-05-11T15:37:08.408Z,8.43
2019-05-11T15:39:37.993Z,9.23
2019-05-11T15:42:14.601Z,9.25
2019-05-11T15:44:38.298Z,9.38
2019-05-11T15:47:07.887Z,7.60
2019-05-11T15:49:37.647Z,10.00
2019-05-11T15:52:08.342Z,8.43
2019-05-11T15:54:38.524Z,7.87
2019-05-11T15:57:08.371Z,8.03
2019-05-11T15:59:38.846Z,7.33
2019-05-11T16:02:08.674Z,8.88
2019-05-11T16:04:38.143Z,10.53
2019-05-11T16:07:08.912Z,6.95
2019-05-11T16:09:38.219Z,11.45
2019-05-11T16:12:07.564Z,10.03
2019-05-11T16:14:38.340Z,7.33
2019-05-11T16:17:08.760Z,8.85
2019-05-11T16:19:40.943Z,255.62
2019-05-11T16:22:10.048Z,16.25
2019-05-11T16:24:40.053Z,10.20
2019-05-11T16:27:09.381Z,9.98
2019-05-11T16:29:38.557Z,10.55
2019-05-11T16:32:08.394Z,117.97
2019-05-11T16:34:38.152Z,16.07
2019-05-11T16:37:09.969Z,25.40
2019-05-11T16:39:38.633Z,22.85
2019-05-11T16:42:08.484Z,7.33
2019-05-11T16:44:37.934Z,7.25
2019-05-11T16:47:08.741Z,12.80
2019-05-11T16:49:38.386Z,6.67
2019-05-11T16:52:10.063Z,36.80
2019-05-11T16:54:38.924Z,20.25
2019-05-11T16:57:08.622Z,9.55
2019-05-11T16:59:39.902Z,13.60
2019-05-11T17:02:08.931Z,9.93
2019-05-11T17:04:39.768Z,13.20
2019-05-11T17:07:09.168Z,15.88
2019-05-11T17:09:38.373Z,8.98
2019-05-11T17:12:08.553Z,8.98
2019-05-11T17:14:39.588Z,9.50
2019-05-11T17:17:08.970Z,10.28
2019-05-11T17:19:45.448Z,12.73
2019-05-11T17:22:09.237Z,8.70
2019-05-11T17:24:38.394Z,11.78
2019-05-11T17:27:08.850Z,22.95
2019-05-11T17:29:38.366Z,25.97
2019-05-11T17:32:08.542Z,32.53
2019-05-11T17:34:38.211Z,25.92
2019-05-11T17:37:08.929Z,20.43
2019-05-11T17:39:38.638Z,22.10
2019-05-11T17:42:09.028Z,12.23
2019-05-11T17:44:38.450Z,14.85
2019-05-11T17:47:08.413Z,16.55
2019-05-11T17:49:38.507Z,19.12
2019-05-11T17:52:09.387Z,16.12
2019-05-11T17:54:38.595Z,14.90
2019-05-11T17:57:07.982Z,14.58
2019-05-11T17:59:38.630Z,12.85
2019-05-11T18:02:09.501Z,15.15
2019-05-11T18:04:40.515Z,17.65
2019-05-11T18:07:24.100Z,17.50
2019-05-11T18:09:40.716Z,17.20
2019-05-11T18:12:10.033Z,15.05
2019-05-11T18:14:39.543Z,24.57
2019-05-11T18:17:10.110Z,25.85
2019-05-11T18:19:39.427Z,29.27
2019-05-11T18:22:08.695Z,40.20
2019-05-11T18:24:38.359Z,33.35
2019-05-11T18:27:08.323Z,45.92
2019-05-11T18:29:38.122Z,56.05
2019-05-11T18:32:07.424Z,49.75
2019-05-11T18:34:37.706Z,48.10
2019-05-11T18:37:08.770Z,41.15
2019-05-11T18:39:38.115Z,33.48
2019-05-11T18:42:08.271Z,37.58
2019-05-11T18:44:38.023Z,49.70
2019-05-11T18:47:08.824Z,46.10
2019-05-11T18:49:38.311Z,46.88
2019-05-11T18:52:08.236Z,44.10
2019-05-11T18:54:38.500Z,40.92
2019-05-11T18:57:08.240Z,40.33
2019-05-11T18:59:37.941Z,42.17
2019-05-11T19:02:08.454Z,48.65
2019-05-11T19:04:38.229Z,45.38
2019-05-11T19:07:16.409Z,35.68
2019-05-11T19:09:38.595Z,36.95
2019-05-11T19:12:08.563Z,33.48
2019-05-11T19:14:38.559Z,35.40
2019-05-11T19:17:08.194Z,27.05
2019-05-11T19:19:38.004Z,30.90
2019-05-11T19:22:09.009Z,28.80
2019-05-11T19:24:38.521Z,26.65
2019-05-11T19:27:08.168Z,37.17
2019-05-11T19:29:38.037Z,40.85
2019-05-11T19:32:10.824Z,38.10
2019-05-11T19:34:38.885Z,35.20
2019-05-11T19:37:08.710Z,37.65
2019-05-11T19:39:38.525Z,53.70
2019-05-11T19:42:07.991Z,242.45
2019-05-11T19:44:38.599Z,151.70
2019-05-11T19:47:08.882Z,136.97
2019-05-11T19:49:38.493Z,121.00
2019-05-11T19:52:08.644Z,97.12
2019-05-11T19:54:38.396Z,152.90
2019-05-11T19:57:08.323Z,163.45
2019-05-11T19:59:38.707Z,142.98
2019-05-11T20:02:09.021Z,126.75
2019-05-11T20:04:38.768Z,134.55
2019-05-11T20:07:08.731Z,122.45
2019-05-11T20:09:38.816Z,101.42
2019-05-11T20:12:08.232Z,143.93
2019-05-11T20:14:37.908Z,157.82
2019-05-11T20:17:08.968Z,161.60
2019-05-11T20:19:38.529Z,162.47
2019-05-11T20:22:07.799Z,152.10
2019-05-11T20:24:37.116Z,127.87
2019-05-11T20:27:08.076Z,139.52
2019-05-11T20:29:38.408Z,122.80
2019-05-11T20:32:08.188Z,101.55
2019-05-11T20:34:38.160Z,107.12
2019-05-11T20:37:07.889Z,101.82
2019-05-11T20:39:37.930Z,104.07
2019-05-11T20:42:08.728Z,97.65
2019-05-11T20:44:38.034Z,97.37
2019-05-11T20:47:07.291Z,94.95
2019-05-11T20:49:38.528Z,89.87
2019-05-11T20:52:08.666Z,86.28
2019-05-11T20:54:38.670Z,85.28
2019-05-11T20:57:08.890Z,83.47
2019-05-11T20:59:38.242Z,83.87
2019-05-11T21:02:09.256Z,85.28
2019-05-11T21:04:38.619Z,86.25
2019-05-11T21:07:08.503Z,88.27
2019-05-11T21:09:38.096Z,88.72
2019-05-11T21:12:08.154Z,98.52
2019-05-11T21:14:38.580Z,99.60
2019-05-11T21:17:09.011Z,96.80
2019-05-11T21:19:39.754Z,101.92
2019-05-11T21:22:09.445Z,93.00
2019-05-11T21:24:38.757Z,96.72
2019-05-11T21:27:08.088Z,99.95
2019-05-11T21:29:38.731Z,98.78
2019-05-11T21:32:08.419Z,99.50
2019-05-11T21:34:38.388Z,94.87
2019-05-11T21:37:07.993Z,103.55
2019-05-11T21:39:37.886Z,93.30
2019-05-11T21:42:07.776Z,100.78
2019-05-11T21:44:37.257Z,100.18
2019-05-11T21:47:07.734Z,109.63
2019-05-11T21:49:37.831Z,105.97
2019-05-11T21:52:07.867Z,100.78
2019-05-11T21:54:38.682Z,105.80
2019-05-11T21:57:08.328Z,100.75
2019-05-11T21:59:37.975Z,102.87
2019-05-11T22:02:08.311Z,110.55
2019-05-11T22:04:38.852Z,101.45
2019-05-11T22:07:08.312Z,100.67
2019-05-11T22:09:38.382Z,108.37
2019-05-11T22:12:10.779Z,109.87
2019-05-11T22:14:39.960Z,104.38
2019-05-11T22:17:09.142Z,107.55
2019-05-11T22:19:40.433Z,106.03
2019-05-11T22:22:21.156Z,108.00
2019-05-11T22:24:40.419Z,109.10
2019-05-11T22:27:09.590Z,113.30
2019-05-11T22:29:38.905Z,112.20
2019-05-11T22:32:08.164Z,109.90
2019-05-11T22:34:38.686Z,107.78
2019-05-11T22:37:08.648Z,106.58
2019-05-11T22:39:38.028Z,103.62
2019-05-11T22:42:08.050Z,109.90
2019-05-11T22:44:38.650Z,107.85
2019-05-11T22:47:08.935Z,105.80
2019-05-11T22:49:38.340Z,141.25
2019-05-11T22:52:08.624Z,138.37
2019-05-11T22:54:38.422Z,132.32
2019-05-11T22:57:08.183Z,124.87
2019-05-11T22:59:38.456Z,128.70
2019-05-11T23:02:10.676Z,122.80
2019-05-11T23:04:38.975Z,125.62
2019-05-11T23:07:08.224Z,134.85
2019-05-11T23:09:38.191Z,134.55
2019-05-11T23:12:09.089Z,132.43
2019-05-11T23:14:38.564Z,123.15
2019-05-11T23:17:08.160Z,122.02
2019-05-11T23:19:38.100Z,113.03
2019-05-11T23:22:08.210Z,116.93
2019-05-11T23:24:37.712Z,113.03
2019-05-11T23:27:07.996Z,115.40
2019-05-11T23:29:38.443Z,117.57
2019-05-11T23:32:08.641Z,118.37
2019-05-11T23:34:38.771Z,106.43
2019-05-11T23:37:08.151Z,111.77
2019-05-11T23:39:38.779Z,104.00
2019-05-11T23:42:08.285Z,113.20
2019-05-11T23:44:37.547Z,104.15
2019-05-11T23:47:06.807Z,103.32
2019-05-11T23:49:36.118Z,110.78
2019-05-11T23:52:07.492Z,112.12
2019-05-11T23:54:38.247Z,108.03
2019-05-11T23:57:09.337Z,105.67
2019-05-11T23:59:38.677Z,94.87
